Airfield :
LOGIN :

Register | Disclaimer

   EN    FR    IT 

 










Legend :    VFR   Marginal VFR   IFR   Intensive IFR   Very Intensive IFR
Visi :
Ceiling :
>= 8 km
>= 3000ft
5 to 8 km
1000 to 3000 ft
1500m to 5 km
500 to 1000 ft
800 to 1500m
200 to 500 ft
< 800m
< 200 ft
Symbols :   Thunderstorms  Fog  Heavy snow  Heavy precipitations  Wind > 20 kt
SIGMETs :     Misc.  Thunderstorms  Icing  Turbulence  Mountain Waves  Volcanic Ashes






- Airport Elevation : 2625 ft
- IATA code : LEU


LESU - Aeròdrom dels Pirineus-Alt Urgell

CURRENT METAR :
  • 151310Z 14003KT 090V240 SCT010 07/05 Q1013

EXPIRED METARs :
  • 151230Z 17003KT 100V240 9999 BKN011 06/04 Q1014
  • 151200Z VRB02KT 9999 BKN012 06/05 Q1014
  • 151130Z VRB02KT 9999 BKN011 06/04 Q1015
  • 151100Z VRB01KT 9999 FEW007 BKN012 06/05 Q1015
  • 151030Z VRB01KT 9999 FEW006 BKN011 05/05 Q1015

TAF AMD TAF LESU
Valid from the 15 at 11:00 until the 16 at 09:00 UTC


151131Z 1511/1609 VRB04KT 9999 FEW060 TX16/1513Z TN01/1606Z
TEMPO 1511/1513 BKN010
TEMPO 1514/1518 20008KT



MET'MAP, your aeronautical weather chart ! - Copyright ORBIFLY December 2007 - Disclaimer

ORBIFLY MET'MAP TEAM :

Programming & Development : Alexandra Zaïnal
Concept & original design : Baudouin d'Aumeries
Assistance for programming : Marc-Olivier Méhu
Technical & hardware support : Manuel Goepfert

Contact : metmap@orbifly.com




SOURCES & CREDITS :

   NOAA